Terminal Aerodrome Forecast
Issued by NWS

Home | Current Version | Previous Version | Text Only | Print | Product List | Glossary On
Versions: 1 2 3 4 5 6 7 8 9 10 11 12 13 14 15 16 17 18 19 20 21 22 23 24
000
FTAK31 PAFA 221123
TAFAUN
TAF
PAUN 221123Z 2212/2312 26024G33KT P6SM -SN FEW025 BKN045 OVC060
     FM221900 21016KT 6SM BR SCT045 SCT250
     FM222100 11016G21KT P6SM BKN100
     FM230100 08019G25KT P6SM BKN100=

USA.gov is the U.S. government's official web portal to all federal, state and local government web resources and services.